Time,TemperatureF,DewpointF,PressureIn,WindDirection,WindDirectionDegrees,WindSpeedMPH,WindSpeedGustMPH,Humidity,HourlyPrecipIn,Conditions,Clouds,dailyrainin,SoftwareType,DateUTC
2013-02-01 00:04:00,8.3,-0.4,30.43,WNW,297,2.0,4.0,67,0.00,CLR,,0.00,WeatherDisplay:10.37,2013-02-01 06:04:00,
2013-02-01 00:10:00,8.3,-0.1,30.42,WNW,291,2.0,4.0,68,0.00,CLR,,0.00,WeatherDisplay:10.37,2013-02-01 06:10:00,
2013-02-01 00:19:00,7.9,-0.4,30.43,WNW,291,1.0,3.0,68,0.00,-SN,,0.00,WeatherDisplay:10.37,2013-02-01 06:19:00,
2013-02-01 00:29:00,7.8,-0.6,30.44,West,280,1.0,3.0,68,0.00,-SN,,0.00,WeatherDisplay:10.37,2013-02-01 06:29:00,
2013-02-01 00:39:00,7.4,-0.6,30.42,West,276,1.0,2.0,69,0.00,-SN,,0.00,WeatherDisplay:10.37,2013-02-01 06:39:00,
2013-02-01 00:49:00,7.3,-0.5,30.43,West,277,1.0,4.0,70,0.00,-SN,,0.00,WeatherDisplay:10.37,2013-02-01 06:49:00,
2013-02-01 00:59:00,7.3,-0.1,30.43,West,277,2.0,4.0,71,0.00,-SN,,0.00,WeatherDisplay:10.37,2013-02-01 06:59:00,
2013-02-01 01:09:00,7.4,0.3,30.42,West,271,2.0,4.0,72,0.00,-SN,,0.00,WeatherDisplay:10.37,2013-02-01 07:09:00,
2013-02-01 01:19:00,7.4,0.0,30.43,West,270,1.0,3.0,71,0.00,-SN,,0.00,WeatherDisplay:10.37,2013-02-01 07:19:00,
2013-02-01 01:29:00,7.2,0.1,30.42,West,271,1.0,3.0,72,0.00,FEW,,0.00,WeatherDisplay:10.37,2013-02-01 07:29:00,
2013-02-01 01:39:00,7.4,0.3,30.42,West,279,2.0,4.0,72,0.00,FEW,,0.00,WeatherDisplay:10.37,2013-02-01 07:39:00,
2013-02-01 01:49:00,7.5,0.3,30.42,West,280,2.0,4.0,72,0.00,FEW,,0.00,WeatherDisplay:10.37,2013-02-01 07:49:00,
2013-02-01 01:59:00,7.4,0.3,30.41,West,281,2.0,4.0,72,0.00,FEW,,0.00,WeatherDisplay:10.37,2013-02-01 07:59:00,
2013-02-01 02:04:00,7.2,0.1,30.41,West,281,1.0,3.0,72,0.00,FEW,,0.00,WeatherDisplay:10.37,2013-02-01 08:04:00,
2013-02-01 02:09:00,7.3,0.2,30.41,West,281,1.0,3.0,72,0.00,FEW,,0.00,WeatherDisplay:10.37,2013-02-01 08:09:00,
2013-02-01 02:19:00,7.1,0.0,30.41,West,281,1.0,3.0,72,0.00,CLR,,0.00,WeatherDisplay:10.37,2013-02-01 08:19:00,
2013-02-01 02:29:00,6.9,-0.2,30.42,West,281,1.0,2.0,72,0.00,CLR,,0.00,WeatherDisplay:10.37,2013-02-01 08:29:00,
2013-02-01 02:39:00,6.7,-0.4,30.41,West,281,1.0,3.0,72,0.00,CLR,,0.00,WeatherDisplay:10.37,2013-02-01 08:39:00,
2013-02-01 02:49:00,6.9,-0.2,30.41,WNW,286,1.0,5.0,72,0.00,CLR,,0.00,WeatherDisplay:10.37,2013-02-01 08:49:00,
2013-02-01 02:54:00,6.9,-0.2,30.41,WNW,292,0.0,4.0,72,0.00,CLR,,0.00,WeatherDisplay:10.37,2013-02-01 08:54:00,
2013-02-01 03:04:00,7.1,-0.1,30.40,NW,304,1.0,2.0,72,0.00,CLR,,0.00,WeatherDisplay:10.37,2013-02-01 09:04:00,
2013-02-01 03:09:00,7.1,0.0,30.40,NW,320,1.0,3.0,72,0.00,CLR,,0.00,WeatherDisplay:10.37,2013-02-01 09:09:00,
2013-02-01 03:14:00,7.1,0.0,30.40,NNW,340,0.0,3.0,72,0.00,CLR,,0.00,WeatherDisplay:10.37,2013-02-01 09:14:00,
2013-02-01 03:24:00,6.9,-0.2,30.40,NNW,340,1.0,4.0,72,0.00,CLR,,0.00,WeatherDisplay:10.37,2013-02-01 09:24:00,
2013-02-01 03:29:00,6.9,-0.2,30.41,NNW,340,0.0,2.0,72,0.00,CLR,,0.00,WeatherDisplay:10.37,2013-02-01 09:29:00,
2013-02-01 03:39:00,6.9,-0.2,30.40,NNW,339,0.0,3.0,72,0.00,CLR,,0.00,WeatherDisplay:10.37,2013-02-01 09:39:00,
2013-02-01 03:49:00,6.7,-0.4,30.40,NNW,339,1.0,3.0,72,0.00,CLR,,0.00,WeatherDisplay:10.37,2013-02-01 09:49:00,
2013-02-01 03:54:00,6.7,-0.4,30.39,North,359,3.0,4.0,72,0.00,CLR,,0.00,WeatherDisplay:10.37,2013-02-01 09:54:00,
2013-02-01 04:04:00,6.9,-0.2,30.38,NNE,13,1.0,4.0,72,0.00,CLR,,0.00,WeatherDisplay:10.37,2013-02-01 10:04:00,
2013-02-01 04:09:00,7.1,0.0,30.38,NNE,15,2.0,4.0,72,0.00,CLR,,0.00,WeatherDisplay:10.37,2013-02-01 10:09:00,
2013-02-01 04:19:00,7.2,0.1,30.37,NNE,23,2.0,5.0,72,0.00,CLR,,0.00,WeatherDisplay:10.37,2013-02-01 10:19:00,
2013-02-01 04:29:00,7.3,0.1,30.36,NE,39,5.0,6.0,72,0.00,CLR,,0.00,WeatherDisplay:10.37,2013-02-01 10:29:00,
2013-02-01 04:34:00,7.3,0.1,30.35,NE,41,3.0,7.0,72,0.00,CLR,,0.00,WeatherDisplay:10.37,2013-02-01 10:34:00,
2013-02-01 04:44:00,7.3,0.1,30.36,ENE,57,0.0,5.0,72,0.00,CLR,,0.00,WeatherDisplay:10.37,2013-02-01 10:44:00,
2013-02-01 04:49:00,7.1,-0.3,30.36,ENE,60,2.0,5.0,71,0.00,CLR,,0.00,WeatherDisplay:10.37,2013-02-01 10:49:00,
2013-02-01 04:54:00,7.1,-0.3,30.37,ENE,61,1.0,5.0,71,0.00,CLR,,0.00,WeatherDisplay:10.37,2013-02-01 10:54:00,
2013-02-01 05:04:00,7.1,-0.9,30.37,ENE,60,0.0,2.0,69,0.00,CLR,,0.00,WeatherDisplay:10.37,2013-02-01 11:04:00,
2013-02-01 05:09:00,7.1,-0.9,30.39,ENE,60,1.0,2.0,69,0.00,CLR,,0.00,WeatherDisplay:10.37,2013-02-01 11:09:00,
2013-02-01 05:19:00,6.9,-1.4,30.38,ENE,61,1.0,2.0,68,0.00,CLR,,0.00,WeatherDisplay:10.37,2013-02-01 11:19:00,
2013-02-01 05:29:00,6.7,-1.6,30.38,ENE,60,0.0,0.0,68,0.00,CLR,,0.00,WeatherDisplay:10.37,2013-02-01 11:29:00,
2013-02-01 05:34:00,6.6,-1.8,30.38,ENE,60,0.0,0.0,68,0.00,CLR,,0.00,WeatherDisplay:10.37,2013-02-01 11:34:00,
2013-02-01 05:39:00,6.5,-1.8,30.37,ENE,60,1.0,2.0,68,0.00,CLR,,0.00,WeatherDisplay:10.37,2013-02-01 11:39:00,
2013-02-01 05:49:00,6.4,-1.6,30.36,ENE,61,0.0,1.0,69,0.00,CLR,,0.00,WeatherDisplay:10.37,2013-02-01 11:49:00,
2013-02-01 05:54:00,6.4,-1.6,30.37,ENE,61,0.0,2.0,69,0.00,CLR,,0.00,WeatherDisplay:10.37,2013-02-01 11:54:00,
2013-02-01 06:04:00,6.4,-1.6,30.38,ENE,60,0.0,1.0,69,0.00,CLR,,0.00,WeatherDisplay:10.37,2013-02-01 12:04:00,
2013-02-01 06:09:00,6.2,-1.5,30.38,ENE,61,0.0,0.0,70,0.00,CLR,,0.00,WeatherDisplay:10.37,2013-02-01 12:09:00,
2013-02-01 06:14:00,6.2,-1.5,30.37,ENE,61,0.0,0.0,70,0.00,-SN,,0.00,WeatherDisplay:10.37,2013-02-01 12:14:00,
2013-02-01 06:19:00,6.2,-1.2,30.38,ENE,60,1.0,3.0,71,0.00,-SN,,0.00,WeatherDisplay:10.37,2013-02-01 12:19:00,
2013-02-01 06:29:00,6.4,-1.0,30.38,ENE,61,0.0,2.0,71,0.00,-SN,,0.00,WeatherDisplay:10.37,2013-02-01 12:29:00,
2013-02-01 06:34:00,6.4,-1.0,30.38,ENE,60,1.0,3.0,71,0.00,-SN,,0.00,WeatherDisplay:10.37,2013-02-01 12:34:00,
2013-02-01 06:39:00,6.7,-0.8,30.39,ENE,60,1.0,3.0,71,0.00,-SN,,0.00,WeatherDisplay:10.37,2013-02-01 12:39:00,
2013-02-01 06:49:00,6.9,-0.8,30.40,ENE,61,1.0,2.0,70,0.00,-SN,,0.00,WeatherDisplay:10.37,2013-02-01 12:49:00,
2013-02-01 06:54:00,6.9,-0.8,30.40,East,84,2.0,4.0,70,0.00,-SN,,0.00,WeatherDisplay:10.37,2013-02-01 12:54:00,
2013-02-01 07:04:00,6.9,-0.8,30.41,SSW,197,2.0,4.0,70,0.00,-SN,,0.00,WeatherDisplay:10.37,2013-02-01 13:04:00,
2013-02-01 07:09:00,6.9,-0.5,30.41,SSW,207,1.0,3.0,71,0.00,-SN,,0.00,WeatherDisplay:10.37,2013-02-01 13:09:00,
2013-02-01 07:14:00,6.7,-0.7,30.41,SSW,207,1.0,3.0,71,0.00,CLR,,0.00,WeatherDisplay:10.37,2013-02-01 13:14:00,
2013-02-01 07:19:00,6.7,-0.7,30.41,SSW,207,1.0,3.0,71,0.00,CLR,,0.00,WeatherDisplay:10.37,2013-02-01 13:19:00,
2013-02-01 07:29:00,6.7,-0.7,30.41,SW,230,2.0,4.0,71,0.00,CLR,,0.00,WeatherDisplay:10.37,2013-02-01 13:29:00,
2013-02-01 07:34:00,6.7,-0.7,30.42,SW,231,1.0,4.0,71,0.00,CLR,,0.00,WeatherDisplay:10.37,2013-02-01 13:34:00,
2013-02-01 07:44:00,6.9,0.1,30.42,SW,231,2.0,4.0,73,0.00,CLR,,0.00,WeatherDisplay:10.37,2013-02-01 13:44:00,
2013-02-01 07:49:00,6.9,0.1,30.42,SW,231,1.0,3.0,73,0.00,CLR,,0.00,WeatherDisplay:10.37,2013-02-01 13:49:00,
2013-02-01 07:54:00,6.9,0.1,30.42,SW,231,2.0,4.0,73,0.00,CLR,,0.00,WeatherDisplay:10.37,2013-02-01 13:54:00,
2013-02-01 08:04:00,6.9,0.1,30.42,SW,231,1.0,4.0,73,0.00,CLR,,0.00,WeatherDisplay:10.37,2013-02-01 14:04:00,
2013-02-01 08:09:00,7.1,0.3,30.42,SW,230,2.0,4.0,73,0.00,CLR,,0.00,WeatherDisplay:10.37,2013-02-01 14:09:00,
2013-02-01 08:14:00,7.3,0.5,30.42,SW,230,1.0,4.0,73,0.00,CLR,,0.00,WeatherDisplay:10.37,2013-02-01 14:14:00,
2013-02-01 08:24:00,7.8,0.7,30.42,SW,234,2.0,4.0,72,0.00,CLR,,0.00,WeatherDisplay:10.37,2013-02-01 14:24:00,
2013-02-01 08:34:00,8.5,0.7,30.42,WSW,238,1.0,3.0,70,0.00,CLR,,0.00,WeatherDisplay:10.37,2013-02-01 14:34:00,
2013-02-01 08:39:00,8.8,0.7,30.42,SW,230,3.0,6.0,69,0.00,CLR,,0.00,WeatherDisplay:10.37,2013-02-01 14:39:00,
2013-02-01 08:49:00,9.9,1.1,30.42,SW,224,2.0,5.0,67,0.00,CLR,,0.00,WeatherDisplay:10.37,2013-02-01 14:49:00,
2013-02-01 08:54:00,10.4,1.3,30.42,SW,234,1.0,3.0,66,0.00,CLR,,0.00,WeatherDisplay:10.37,2013-02-01 14:54:00,
2013-02-01 09:04:00,10.9,0.8,30.41,SW,235,1.0,3.0,63,0.00,CLR,,0.00,WeatherDisplay:10.37,2013-02-01 15:04:00,
2013-02-01 09:09:00,11.2,0.7,30.41,SW,235,1.0,4.0,62,0.00,CLR,,0.00,WeatherDisplay:10.37,2013-02-01 15:09:00,
2013-02-01 09:14:00,11.5,0.7,30.41,SW,234,3.0,7.0,61,0.00,CLR,,0.00,WeatherDisplay:10.37,2013-02-01 15:14:00,
2013-02-01 09:24:00,12.0,0.4,30.40,SSW,207,1.0,6.0,59,0.00,CLR,,0.00,WeatherDisplay:10.37,2013-02-01 15:24:00,
2013-02-01 09:29:00,12.4,0.8,30.41,SSW,203,2.0,6.0,59,0.00,CLR,,0.00,WeatherDisplay:10.37,2013-02-01 15:29:00,
2013-02-01 09:34:00,12.9,1.6,30.40,SSW,210,2.0,6.0,60,0.00,CLR,,0.00,WeatherDisplay:10.37,2013-02-01 15:34:00,
2013-02-01 09:39:00,13.5,2.6,30.40,SW,221,3.0,8.0,61,0.00,CLR,,0.00,WeatherDisplay:10.37,2013-02-01 15:39:00,
2013-02-01 09:49:00,14.3,2.6,30.39,SSW,196,5.0,7.0,59,0.00,CLR,,0.00,WeatherDisplay:10.37,2013-02-01 15:49:00,
2013-02-01 09:54:00,14.7,3.0,30.39,SSW,204,5.0,8.0,59,0.00,CLR,,0.00,WeatherDisplay:10.37,2013-02-01 15:54:00,
2013-02-01 09:59:00,14.9,3.1,30.39,SSW,206,3.0,6.0,59,0.00,CLR,,0.00,WeatherDisplay:10.37,2013-02-01 15:59:00,
2013-02-01 10:09:00,15.5,3.3,30.39,SSW,211,3.0,10.0,58,0.00,CLR,,0.00,WeatherDisplay:10.37,2013-02-01 16:09:00,
2013-02-01 10:14:00,15.9,4.1,30.38,SW,220,3.0,8.0,59,0.00,CLR,,0.00,WeatherDisplay:10.37,2013-02-01 16:14:00,
2013-02-01 10:24:00,16.6,4.7,30.38,SSW,206,5.0,7.0,59,0.00,CLR,,0.00,WeatherDisplay:10.37,2013-02-01 16:24:00,
2013-02-01 10:29:00,17.0,5.2,30.38,SSW,194,5.0,10.0,59,0.00,CLR,,0.00,WeatherDisplay:10.37,2013-02-01 16:29:00,
2013-02-01 10:39:00,17.8,5.9,30.37,SSW,196,3.0,12.0,59,0.00,CLR,,0.00,WeatherDisplay:10.37,2013-02-01 16:39:00,
2013-02-01 10:49:00,18.6,6.6,30.37,SSE,162,3.0,9.0,59,0.00,CLR,,0.00,WeatherDisplay:10.37,2013-02-01 16:49:00,
2013-02-01 10:54:00,18.6,6.3,30.37,South,173,3.0,9.0,58,0.00,CLR,,0.00,WeatherDisplay:10.37,2013-02-01 16:54:00,
2013-02-01 11:04:00,19.2,6.8,30.37,SW,217,2.0,9.0,58,0.00,CLR,,0.00,WeatherDisplay:10.37,2013-02-01 17:04:00,
2013-02-01 11:09:00,19.5,7.1,30.37,South,183,3.0,9.0,58,0.00,CLR,,0.00,WeatherDisplay:10.37,2013-02-01 17:09:00,
2013-02-01 11:14:00,19.7,6.9,30.36,South,183,5.0,10.0,57,0.00,CLR,,0.00,WeatherDisplay:10.37,2013-02-01 17:14:00,
2013-02-01 11:19:00,19.7,6.9,30.35,SSW,192,3.0,10.0,57,0.00,CLR,,0.00,WeatherDisplay:10.37,2013-02-01 17:19:00,
2013-02-01 11:29:00,20.6,8.1,30.34,SSE,168,3.0,6.0,58,0.00,CLR,,0.00,WeatherDisplay:10.37,2013-02-01 17:29:00,
2013-02-01 11:34:00,21.0,8.5,30.34,South,190,3.0,9.0,58,0.00,CLR,,0.00,WeatherDisplay:10.37,2013-02-01 17:34:00,
2013-02-01 11:39:00,21.2,7.9,30.34,South,188,7.0,10.0,56,0.00,CLR,,0.00,WeatherDisplay:10.37,2013-02-01 17:39:00,
2013-02-01 11:49:00,21.5,8.6,30.34,SSW,212,6.0,10.0,57,0.00,CLR,,0.00,WeatherDisplay:10.37,2013-02-01 17:49:00,
2013-02-01 11:54:00,21.7,8.8,30.34,SW,216,5.0,12.0,57,0.00,CLR,,0.00,WeatherDisplay:10.37,2013-02-01 17:54:00,
2013-02-01 12:04:00,22.2,9.2,30.33,SSW,201,2.0,6.0,57,0.00,CLR,,0.00,WeatherDisplay:10.37,2013-02-01 18:04:00,
2013-02-01 12:09:00,22.4,9.1,30.33,South,183,3.0,9.0,56,0.00,CLR,,0.00,WeatherDisplay:10.37,2013-02-01 18:09:00,
2013-02-01 12:14:00,22.4,9.1,30.33,SSW,194,3.0,10.0,56,0.00,CLR,,0.00,WeatherDisplay:10.37,2013-02-01 18:14:00,
2013-02-01 12:19:00,22.4,9.1,30.32,SSW,206,6.0,12.0,56,0.00,CLR,,0.00,WeatherDisplay:10.37,2013-02-01 18:19:00,
2013-02-01 12:29:00,22.6,9.7,30.31,South,184,3.0,8.0,57,0.00,CLR,,0.00,WeatherDisplay:10.37,2013-02-01 18:29:00,
2013-02-01 12:39:00,23.5,10.1,30.30,South,188,6.0,10.0,56,0.00,CLR,,0.00,WeatherDisplay:10.37,2013-02-01 18:39:00,
2013-02-01 12:49:00,23.9,10.1,30.30,South,181,2.0,8.0,55,0.00,CLR,,0.00,WeatherDisplay:10.37,2013-02-01 18:49:00,
2013-02-01 12:54:00,24.0,9.7,30.30,South,190,3.0,12.0,54,0.00,CLR,,0.00,WeatherDisplay:10.37,2013-02-01 18:54:00,
2013-02-01 13:04:00,24.0,9.7,30.30,South,188,5.0,10.0,54,0.00,CLR,,0.00,WeatherDisplay:10.37,2013-02-01 19:04:00,
2013-02-01 13:09:00,24.0,10.2,30.29,SSW,192,6.0,12.0,55,0.00,CLR,,0.00,WeatherDisplay:10.37,2013-02-01 19:09:00,
2013-02-01 13:14:00,24.0,10.2,30.29,South,180,5.0,12.0,55,0.00,CLR,,0.00,WeatherDisplay:10.37,2013-02-01 19:14:00,
2013-02-01 13:19:00,24.2,10.7,30.30,SSW,205,6.0,13.0,56,0.00,CLR,,0.00,WeatherDisplay:10.37,2013-02-01 19:19:00,
2013-02-01 13:29:00,23.8,10.3,30.30,SSW,203,6.0,13.0,56,0.00,BKN,,0.00,WeatherDisplay:10.37,2013-02-01 19:29:00,
2013-02-01 13:34:00,23.7,10.7,30.29,SSW,207,5.0,9.0,57,0.00,BKN,,0.00,WeatherDisplay:10.37,2013-02-01 19:34:00,
2013-02-01 13:39:00,23.9,11.3,30.29,SW,214,7.0,12.0,58,0.00,BKN,,0.00,WeatherDisplay:10.37,2013-02-01 19:39:00,
2013-02-01 13:49:00,24.0,11.0,30.29,SSW,210,6.0,10.0,57,0.00,BKN,,0.00,WeatherDisplay:10.37,2013-02-01 19:49:00,
2013-02-01 13:54:00,24.0,10.1,30.28,SSW,201,7.0,12.0,55,0.00,BKN,,0.00,WeatherDisplay:10.37,2013-02-01 19:54:00,
2013-02-01 14:04:00,23.7,10.3,30.28,SSW,200,5.0,9.0,56,0.00,BKN,,0.00,WeatherDisplay:10.37,2013-02-01 20:04:00,
2013-02-01 14:09:00,24.0,10.6,30.27,South,171,6.0,10.0,56,0.00,BKN,,0.00,WeatherDisplay:10.37,2013-02-01 20:09:00,
2013-02-01 14:14:00,24.4,11.3,30.27,South,189,6.0,13.0,57,0.00,OVC,,0.00,WeatherDisplay:10.37,2013-02-01 20:14:00,
2013-02-01 14:19:00,24.9,11.8,30.27,SSW,208,6.0,13.0,57,0.00,OVC,,0.00,WeatherDisplay:10.37,2013-02-01 20:19:00,
2013-02-01 14:29:00,25.2,12.1,30.26,South,171,5.0,10.0,57,0.00,OVC,,0.00,WeatherDisplay:10.37,2013-02-01 20:29:00,
2013-02-01 14:34:00,25.2,11.3,30.26,South,183,9.0,15.0,55,0.00,OVC,,0.00,WeatherDisplay:10.37,2013-02-01 20:34:00,
2013-02-01 14:44:00,25.1,11.2,30.25,South,182,5.0,8.0,55,0.00,OVC,,0.00,WeatherDisplay:10.37,2013-02-01 20:44:00,
2013-02-01 14:54:00,25.1,11.2,30.24,South,183,5.0,9.0,55,0.00,OVC,,0.00,WeatherDisplay:10.37,2013-02-01 20:54:00,
2013-02-01 15:04:00,25.4,11.4,30.24,SSW,197,5.0,9.0,55,0.00,OVC,,0.00,WeatherDisplay:10.37,2013-02-01 21:04:00,
2013-02-01 15:09:00,25.4,11.5,30.24,SSW,204,3.0,8.0,55,0.00,OVC,,0.00,WeatherDisplay:10.37,2013-02-01 21:09:00,
2013-02-01 15:14:00,25.4,11.5,30.24,SSW,210,5.0,12.0,55,0.00,OVC,,0.00,WeatherDisplay:10.37,2013-02-01 21:14:00,
2013-02-01 15:19:00,25.4,11.4,30.24,SSW,192,5.0,12.0,55,0.00,OVC,,0.00,WeatherDisplay:10.37,2013-02-01 21:19:00,
2013-02-01 15:29:00,25.7,12.2,30.23,SSW,193,3.0,8.0,56,0.00,OVC,,0.00,WeatherDisplay:10.37,2013-02-01 21:29:00,
2013-02-01 15:34:00,25.7,12.1,30.24,SSW,202,6.0,12.0,56,0.00,OVC,,0.00,WeatherDisplay:10.37,2013-02-01 21:34:00,
2013-02-01 15:39:00,25.7,12.2,30.23,SSW,197,3.0,9.0,56,0.00,OVC,,0.00,WeatherDisplay:10.37,2013-02-01 21:39:00,
2013-02-01 15:49:00,25.7,11.7,30.23,SSW,192,5.0,12.0,55,0.00,OVC,,0.00,WeatherDisplay:10.37,2013-02-01 21:49:00,
2013-02-01 15:54:00,25.7,11.7,30.23,South,189,3.0,12.0,55,0.00,OVC,,0.00,WeatherDisplay:10.37,2013-02-01 21:54:00,
2013-02-01 16:04:00,25.8,12.2,30.23,SSW,193,3.0,9.0,56,0.00,OVC,,0.00,WeatherDisplay:10.37,2013-02-01 22:04:00,
2013-02-01 16:09:00,26.0,12.4,30.22,South,181,6.0,12.0,56,0.00,OVC,,0.00,WeatherDisplay:10.37,2013-02-01 22:09:00,
2013-02-01 16:19:00,26.0,12.0,30.22,South,177,5.0,10.0,55,0.00,BKN,,0.00,WeatherDisplay:10.37,2013-02-01 22:19:00,
2013-02-01 16:29:00,25.8,11.8,30.21,South,180,2.0,12.0,55,0.00,BKN,,0.00,WeatherDisplay:10.37,2013-02-01 22:29:00,
2013-02-01 16:39:00,25.8,11.8,30.21,SSW,201,5.0,8.0,55,0.00,BKN,,0.00,WeatherDisplay:10.37,2013-02-01 22:39:00,
2013-02-01 16:49:00,25.7,11.7,30.20,SSW,207,2.0,7.0,55,0.00,BKN,,0.00,WeatherDisplay:10.37,2013-02-01 22:49:00,
2013-02-01 16:54:00,25.7,11.7,30.20,South,182,3.0,7.0,55,0.00,BKN,,0.00,WeatherDisplay:10.37,2013-02-01 22:54:00,
2013-02-01 17:04:00,25.7,11.7,30.20,SSE,159,2.0,7.0,55,0.00,BKN,,0.00,WeatherDisplay:10.37,2013-02-01 23:04:00,
2013-02-01 17:09:00,25.7,12.2,30.19,South,181,5.0,9.0,56,0.00,BKN,,0.00,WeatherDisplay:10.37,2013-02-01 23:09:00,
2013-02-01 17:19:00,25.5,11.6,30.20,SSW,200,5.0,13.0,55,0.00,OVC,,0.00,WeatherDisplay:10.37,2013-02-01 23:19:00,
2013-02-01 17:29:00,25.4,11.5,30.18,South,183,3.0,12.0,55,0.00,OVC,,0.00,WeatherDisplay:10.37,2013-02-01 23:29:00,
2013-02-01 17:34:00,25.4,11.8,30.18,South,179,2.0,7.0,56,0.00,OVC,,0.00,WeatherDisplay:10.37,2013-02-01 23:34:00,
2013-02-01 17:39:00,25.4,11.5,30.18,South,190,5.0,9.0,55,0.00,OVC,,0.00,WeatherDisplay:10.37,2013-02-01 23:39:00,
2013-02-01 17:49:00,25.4,12.2,30.17,South,186,5.0,7.0,57,0.00,OVC,,0.00,WeatherDisplay:10.37,2013-02-01 23:49:00,
2013-02-01 17:59:00,25.2,12.1,30.17,South,191,3.0,9.0,57,0.00,OVC,,0.00,WeatherDisplay:10.37,2013-02-01 23:59:00,
2013-02-01 18:09:00,25.2,12.1,30.17,SSW,206,2.0,5.0,57,0.00,SCT,,0.00,WeatherDisplay:10.37,2013-02-02 00:09:00,
2013-02-01 18:19:00,25.2,12.5,30.17,South,186,2.0,9.0,58,0.00,SCT,,0.00,WeatherDisplay:10.37,2013-02-02 00:19:00,
2013-02-01 18:24:00,25.2,12.5,30.16,SSE,167,3.0,9.0,58,0.00,SCT,,0.00,WeatherDisplay:10.37,2013-02-02 00:24:00,
2013-02-01 18:34:00,25.1,12.8,30.17,SSW,197,0.0,7.0,59,0.00,SCT,,0.00,WeatherDisplay:10.37,2013-02-02 00:34:00,
2013-02-01 18:39:00,25.1,12.8,30.16,South,177,3.0,7.0,59,0.00,SCT,,0.00,WeatherDisplay:10.37,2013-02-02 00:39:00,
2013-02-01 18:44:00,25.1,13.2,30.16,SSE,157,3.0,9.0,60,0.00,SCT,,0.00,WeatherDisplay:10.37,2013-02-02 00:44:00,
2013-02-01 18:49:00,25.1,13.2,30.16,SSE,166,3.0,8.0,60,0.00,SCT,,0.00,WeatherDisplay:10.37,2013-02-02 00:49:00,
2013-02-01 18:54:00,24.9,13.0,30.16,South,171,2.0,7.0,60,0.00,SCT,,0.00,WeatherDisplay:10.37,2013-02-02 00:54:00,
2013-02-01 19:04:00,24.9,13.3,30.17,South,183,5.0,10.0,61,0.00,SCT,,0.00,WeatherDisplay:10.37,2013-02-02 01:04:00,
2013-02-01 19:09:00,24.9,13.0,30.18,SSW,193,5.0,12.0,60,0.00,SCT,,0.00,WeatherDisplay:10.37,2013-02-02 01:09:00,
2013-02-01 19:14:00,24.9,13.0,30.18,SSW,200,3.0,8.0,60,0.00,SCT,,0.00,WeatherDisplay:10.37,2013-02-02 01:14:00,
2013-02-01 19:19:00,24.9,13.3,30.19,SSW,204,6.0,9.0,61,0.00,SCT,,0.00,WeatherDisplay:10.37,2013-02-02 01:19:00,
2013-02-01 19:29:00,25.1,13.2,30.18,SSW,207,5.0,9.0,60,0.00,FEW,,0.00,WeatherDisplay:10.37,2013-02-02 01:29:00,
2013-02-01 19:34:00,24.9,13.0,30.17,SSW,206,3.0,6.0,60,0.00,FEW,,0.00,WeatherDisplay:10.37,2013-02-02 01:34:00,
2013-02-01 19:39:00,24.9,13.3,30.17,SSW,194,6.0,12.0,61,0.00,FEW,,0.00,WeatherDisplay:10.37,2013-02-02 01:39:00,
2013-02-01 19:44:00,24.9,13.3,30.18,SSW,199,3.0,9.0,61,0.00,FEW,,0.00,WeatherDisplay:10.37,2013-02-02 01:44:00,
2013-02-01 19:54:00,24.8,13.6,30.18,SSW,202,3.0,8.0,62,0.00,FEW,,0.00,WeatherDisplay:10.37,2013-02-02 01:54:00,
2013-02-01 20:04:00,24.7,13.5,30.17,SSW,199,2.0,7.0,62,0.00,CLR,,0.00,WeatherDisplay:10.37,2013-02-02 02:04:00,
2013-02-01 20:09:00,24.6,13.4,30.17,South,191,3.0,8.0,62,0.00,CLR,,0.00,WeatherDisplay:10.37,2013-02-02 02:09:00,
2013-02-01 20:14:00,24.6,13.4,30.17,SSW,198,2.0,7.0,62,0.00,CLR,,0.00,WeatherDisplay:10.37,2013-02-02 02:14:00,
2013-02-01 20:19:00,24.5,13.4,30.17,SSW,194,5.0,7.0,62,0.00,CLR,,0.00,WeatherDisplay:10.37,2013-02-02 02:19:00,
2013-02-01 20:24:00,24.5,13.3,30.17,SSW,204,3.0,7.0,62,0.00,CLR,,0.00,WeatherDisplay:10.37,2013-02-02 02:24:00,
2013-02-01 20:29:00,24.3,13.2,30.17,SW,225,3.0,7.0,62,0.00,CLR,,0.00,WeatherDisplay:10.37,2013-02-02 02:29:00,
2013-02-01 20:39:00,24.3,13.1,30.16,SSW,193,5.0,10.0,62,0.00,CLR,,0.00,WeatherDisplay:10.37,2013-02-02 02:39:00,
2013-02-01 20:49:00,24.3,13.1,30.16,SSW,192,3.0,5.0,62,0.00,CLR,,0.00,WeatherDisplay:10.37,2013-02-02 02:49:00,
2013-02-01 20:59:00,24.3,12.8,30.16,SSW,195,5.0,7.0,61,0.00,CLR,,0.00,WeatherDisplay:10.37,2013-02-02 02:59:00,
2013-02-01 21:09:00,24.3,13.1,30.16,South,185,3.0,6.0,62,0.00,CLR,,0.00,WeatherDisplay:10.37,2013-02-02 03:09:00,
2013-02-01 21:19:00,24.4,13.3,30.16,SSW,206,1.0,7.0,62,0.00,CLR,,0.00,WeatherDisplay:10.37,2013-02-02 03:19:00,
2013-02-01 21:24:00,24.5,13.3,30.17,SSW,213,1.0,5.0,62,0.00,CLR,,0.00,WeatherDisplay:10.37,2013-02-02 03:24:00,
2013-02-01 21:29:00,24.3,13.1,30.16,SW,230,2.0,6.0,62,0.00,CLR,,0.00,WeatherDisplay:10.37,2013-02-02 03:29:00,
2013-02-01 21:34:00,24.3,13.1,30.16,SSW,211,3.0,7.0,62,0.00,CLR,,0.00,WeatherDisplay:10.37,2013-02-02 03:34:00,
2013-02-01 21:39:00,24.5,13.3,30.16,SSW,198,2.0,6.0,62,0.00,CLR,,0.00,WeatherDisplay:10.37,2013-02-02 03:39:00,
2013-02-01 21:44:00,24.5,13.7,30.16,SSW,193,3.0,6.0,63,0.00,CLR,,0.00,WeatherDisplay:10.37,2013-02-02 03:44:00,
2013-02-01 21:54:00,24.5,13.7,30.16,SSW,210,3.0,7.0,63,0.00,CLR,,0.00,WeatherDisplay:10.37,2013-02-02 03:54:00,
2013-02-01 22:04:00,24.5,13.3,30.16,SSW,202,2.0,5.0,62,0.00,CLR,,0.00,WeatherDisplay:10.37,2013-02-02 04:04:00,
2013-02-01 22:09:00,24.3,13.5,30.16,SSW,205,2.0,5.0,63,0.00,CLR,,0.00,WeatherDisplay:10.37,2013-02-02 04:09:00,
2013-02-01 22:14:00,24.3,13.5,30.15,SSW,201,2.0,6.0,63,0.00,CLR,,0.00,WeatherDisplay:10.37,2013-02-02 04:14:00,
2013-02-01 22:19:00,24.5,13.7,30.15,SSW,193,2.0,7.0,63,0.00,CLR,,0.00,WeatherDisplay:10.37,2013-02-02 04:19:00,
2013-02-01 22:29:00,24.6,13.8,30.15,SSW,205,3.0,7.0,63,0.00,CLR,,0.00,WeatherDisplay:10.37,2013-02-02 04:29:00,
2013-02-01 22:34:00,24.8,13.6,30.14,SSW,207,1.0,5.0,62,0.00,CLR,,0.00,WeatherDisplay:10.37,2013-02-02 04:34:00,
2013-02-01 22:39:00,24.8,13.6,30.14,South,190,3.0,7.0,62,0.00,CLR,,0.00,WeatherDisplay:10.37,2013-02-02 04:39:00,
2013-02-01 22:49:00,24.9,13.7,30.14,SSW,209,2.0,6.0,62,0.00,CLR,,0.00,WeatherDisplay:10.37,2013-02-02 04:49:00,
2013-02-01 22:59:00,25.1,13.9,30.13,SSW,202,3.0,10.0,62,0.00,CLR,,0.00,WeatherDisplay:10.37,2013-02-02 04:59:00,
2013-02-01 23:04:00,25.2,14.0,30.13,SSW,195,6.0,8.0,62,0.00,CLR,,0.00,WeatherDisplay:10.37,2013-02-02 05:04:00,
2013-02-01 23:09:00,25.4,14.2,30.14,SSW,200,6.0,9.0,62,0.00,CLR,,0.00,WeatherDisplay:10.37,2013-02-02 05:09:00,
2013-02-01 23:14:00,25.4,13.8,30.13,SSW,208,3.0,10.0,61,0.00,CLR,,0.00,WeatherDisplay:10.37,2013-02-02 05:14:00,
2013-02-01 23:19:00,25.5,14.3,30.13,SSW,201,3.0,8.0,62,0.00,CLR,,0.00,WeatherDisplay:10.37,2013-02-02 05:19:00,
2013-02-01 23:24:00,25.5,14.3,30.12,South,190,3.0,7.0,62,0.00,CLR,,0.00,WeatherDisplay:10.37,2013-02-02 05:24:00,
2013-02-01 23:29:00,25.5,14.3,30.12,SSW,197,1.0,6.0,62,0.00,CLR,,0.00,WeatherDisplay:10.37,2013-02-02 05:29:00,
2013-02-01 23:39:00,25.8,14.5,30.12,SSW,209,2.0,6.0,62,0.00,CLR,,0.00,WeatherDisplay:10.37,2013-02-02 05:39:00,
2013-02-01 23:49:00,25.8,14.6,30.11,SSW,205,5.0,7.0,62,0.00,CLR,,0.00,WeatherDisplay:10.37,2013-02-02 05:49:00,
2013-02-01 23:54:00,26.0,14.7,30.12,SSW,195,5.0,9.0,62,0.00,CLR,,0.00,WeatherDisplay:10.37,2013-02-02 05:54:00,
2013-02-01 23:59:00,26.1,14.4,30.11,SSW,196,2.0,7.0,61,0.00,CLR,,0.00,WeatherDisplay:10.37,2013-02-02 05:59:00,